Flight Track Log - Related Links

Times and Time Zones

All times are in EDT time to prevent confusion due to time zone crossing. See the TAM8076 flight status page for this flight to view local times or setup timezone preferences in your user account.

Time Position Orientation Groundspeed Altitude Reporting Facility
EDT Latitude Longitude Course Direction KTS MPH feet Rate Location/Type
Fri 04:14:00 PM 0.1345 -62.1099 327° Northwest  Level Estimated
Fri 04:15:00 PM 0.2337 -62.1742 327° Northwest  Level Estimated
Fri 04:16:00 PM 0.3329 -62.2385 327° Northwest  Level Estimated
Fri 04:17:00 PM 0.4320 -62.3028 327° Northwest  Level Estimated
Fri 04:18:00 PM 0.5312 -62.3671 327° Northwest  Level Estimated
Fri 04:19:00 PM 0.6304 -62.4315 327° Northwest  Level Estimated
Fri 04:20:00 PM 0.7296 -62.4958 327° Northwest  Level Estimated
Fri 04:21:00 PM 0.8287 -62.5601 327° Northwest  Level Estimated
Fri 04:22:00 PM 0.9279 -62.6245 327° Northwest  Level Estimated
Fri 04:23:00 PM 1.0271 -62.6888 327° Northwest  Level Estimated
Fri 04:24:00 PM 1.1263 -62.7532 327° Northwest  Level Estimated
Fri 04:25:00 PM 1.2254 -62.8175 327° Northwest  Level Estimated
Fri 04:26:00 PM 1.3246 -62.8819 327° Northwest  Level Estimated
Fri 04:27:00 PM 1.4238 -62.9462 327° Northwest  Level Estimated
Fri 04:28:00 PM 1.5229 -63.0106 327° Northwest  Level Estimated
Fri 04:29:00 PM 1.6221 -63.0750 327° Northwest  Level Estimated
Fri 04:30:00 PM 1.7212 -63.1393 327° Northwest  Level Estimated
Fri 04:31:00 PM 1.8204 -63.2037 327° Northwest  Level Estimated
Fri 04:32:00 PM 1.9196 -63.2681 327° Northwest  Level Estimated
Fri 04:33:00 PM 2.0187 -63.3325 327° Northwest  Level Estimated
Fri 04:34:00 PM 2.1179 -63.3969 327° Northwest  Level Estimated
Fri 04:35:00 PM 2.2170 -63.4613 327° Northwest  Level Estimated
Fri 04:36:00 PM 2.3162 -63.5257 327° Northwest  Level Estimated
Fri 04:37:00 PM 2.4153 -63.5902 327° Northwest  Level Estimated
Fri 04:38:00 PM 2.5144 -63.6546 327° Northwest  Level Estimated
Fri 04:39:00 PM 2.6136 -63.7191 327° Northwest  Level Estimated
Fri 04:40:00 PM 2.7127 -63.7835 327° Northwest  Level Estimated
Fri 04:41:00 PM 2.8118 -63.8480 327° Northwest  Level Estimated
Fri 04:42:00 PM 2.9110 -63.9125 327° Northwest  Level Estimated
Fri 04:43:00 PM 3.0101 -63.9770 327° Northwest  Level Estimated
Fri 04:44:00 PM 3.1092 -64.0415 327° Northwest  Level Estimated
Fri 04:45:00 PM 3.2083 -64.1060 327° Northwest  Level Estimated
Fri 04:46:00 PM 3.3074 -64.1705 327° Northwest  Level Estimated
Fri 04:47:00 PM 3.4065 -64.2351 327° Northwest  Level Estimated
Fri 04:48:00 PM 3.5056 -64.2996 327° Northwest  Level Estimated
Fri 04:49:00 PM 3.6047 -64.3642 327° Northwest  Level Estimated
Fri 04:50:00 PM 3.7038 -64.4288 327° Northwest  Level Estimated
Fri 04:51:00 PM 3.8029 -64.4934 327° Northwest  Level Estimated
Fri 04:52:00 PM 3.9020 -64.5580 327° Northwest  Level Estimated
Fri 04:53:00 PM 4.0011 -64.6226 327° Northwest  Level Estimated
Fri 04:54:00 PM 4.1002 -64.6872 327° Northwest  Level Estimated
Fri 04:55:00 PM 4.1992 -64.7519 327° Northwest  Level Estimated
Fri 04:56:00 PM 4.2983 -64.8166 327° Northwest  Level Estimated
Fri 04:57:00 PM 4.3973 -64.8813 327° Northwest  Level Estimated
Fri 04:58:00 PM 4.4964 -64.9460 327° Northwest  Level Estimated
Fri 04:59:00 PM 4.5954 -65.0107 327° Northwest  Level Estimated
Fri 05:00:00 PM 4.6945 -65.0755 327° Northwest  Level Estimated
Fri 05:01:00 PM 4.7935 -65.1402 327° Northwest  Level Estimated
Fri 05:02:00 PM 4.8925 -65.2050 327° Northwest  Level Estimated
Fri 05:03:00 PM 4.9916 -65.2698 327° Northwest  Level Estimated
Fri 05:04:00 PM 5.0906 -65.3346 327° Northwest  Level Estimated
Fri 05:05:00 PM 5.1896 -65.3995 327° Northwest  Level Estimated
Fri 05:06:00 PM 5.2886 -65.4643 327° Northwest  Level Estimated
Fri 05:07:00 PM 5.3876 -65.5292 327° Northwest  Level Estimated
Fri 05:08:00 PM 5.4866 -65.5941 327° Northwest  Level Estimated
Fri 05:09:00 PM 5.5856 -65.6590 327° Northwest  Level Estimated
Fri 05:10:00 PM 5.6845 -65.7240 327° Northwest  Level Estimated
Fri 05:11:00 PM 5.7835 -65.7890 327° Northwest  Level Estimated
Fri 05:12:00 PM 5.8825 -65.8540 327° Northwest  Level Estimated
Fri 05:13:00 PM 5.9814 -65.9190 327° Northwest  Level Estimated
Fri 05:14:00 PM 6.0804 -65.9840 327° Northwest  Level Estimated
Fri 05:15:00 PM 6.1793 -66.0491 327° Northwest  Level Estimated
Fri 05:16:00 PM 6.2782 -66.1142 327° Northwest  Level Estimated
Fri 05:17:00 PM 6.3772 -66.1793 327° Northwest  Level Estimated
Fri 05:18:00 PM 6.4761 -66.2444 327° Northwest  Level Estimated
Fri 05:19:00 PM 6.5750 -66.3096 327° Northwest  Level Estimated
Fri 05:20:00 PM 6.6739 -66.3748 327° Northwest  Level Estimated
Fri 05:21:00 PM 6.7727 -66.4400 327° Northwest  Level Estimated
Fri 05:22:00 PM 6.8716 -66.5052 327° Northwest  Level Estimated
Fri 05:23:00 PM 6.9705 -66.5705 327° Northwest  Level Estimated
Fri 05:24:00 PM 7.0694 -66.6358 327° Northwest  Level Estimated
Fri 05:25:00 PM 7.1682 -66.7011 327° Northwest  Level Estimated
Fri 05:26:00 PM 7.2670 -66.7665 327° Northwest  Level Estimated
Fri 05:27:00 PM 7.3659 -66.8318 327° Northwest  Level Estimated
Fri 05:28:00 PM 7.4647 -66.8972 327° Northwest  Level Estimated
Fri 05:29:00 PM 7.5635 -66.9627 327° Northwest  Level Estimated
Fri 05:30:00 PM 7.6623 -67.0282 327° Northwest  Level Estimated
Fri 05:31:00 PM 7.7611 -67.0937 327° Northwest  Level Estimated
Fri 05:32:00 PM 7.8599 -67.1592 327° Northwest  Level Estimated
Fri 05:33:00 PM 7.9587 -67.2247 327° Northwest  Level Estimated
Fri 05:34:00 PM 8.0574 -67.2903 327° Northwest  Level Estimated
Fri 05:35:00 PM 8.1562 -67.3560 327° Northwest  Level Estimated
Fri 05:36:00 PM 8.2549 -67.4216 327° Northwest  Level Estimated
Fri 05:37:00 PM 8.3536 -67.4873 327° Northwest  Level Estimated
Fri 05:38:00 PM 8.4524 -67.5530 327° Northwest  Level Estimated
Fri 05:39:00 PM 8.5511 -67.6188 327° Northwest  Level Estimated
Fri 05:40:00 PM 8.6498 -67.6846 327° Northwest  Level Estimated
Fri 05:41:00 PM 8.7485 -67.7504 327° Northwest  Level Estimated
Fri 05:42:00 PM 8.8471 -67.8163 327° Northwest  Level Estimated
Fri 05:43:00 PM 8.9458 -67.8822 327° Northwest  Level Estimated
Fri 05:44:00 PM 9.0445 -67.9481 327° Northwest  Level Estimated
Fri 05:45:00 PM 9.1431 -68.0141 327° Northwest  Level Estimated
Fri 05:46:00 PM 9.2417 -68.0801 327° Northwest  Level Estimated
Fri 05:47:00 PM 9.3404 -68.1461 327° Northwest  Level Estimated
Fri 05:48:00 PM 9.4390 -68.2122 327° Northwest  Level Estimated
Fri 05:49:00 PM 9.5375 -68.2783 327° Northwest  Level Estimated
Fri 05:50:00 PM 9.6361 -68.3445 327° Northwest  Level Estimated
Fri 05:51:00 PM 9.7347 -68.4107 327° Northwest  Level Estimated
Fri 05:52:00 PM 9.8333 -68.4769 326° Northwest  Level Estimated
Fri 05:53:00 PM 9.9318 -68.5432 326° Northwest  Level Estimated
Fri 05:54:00 PM 10.0303 -68.6095 326° Northwest  Level Estimated
Fri 05:55:00 PM 10.1288 -68.6759 326° Northwest  Level Estimated
Fri 05:56:00 PM 10.2274 -68.7422 326° Northwest  Level Estimated
Fri 05:57:00 PM 10.3258 -68.8087 326° Northwest  Level Estimated
Fri 05:58:00 PM 10.4243 -68.8752 326° Northwest  Level Estimated
Fri 05:59:00 PM 10.5228 -68.9417 326° Northwest  Level Estimated
Fri 06:00:00 PM 10.6212 -69.0082 326° Northwest  Level Estimated
Fri 06:01:00 PM 10.7197 -69.0749 326° Northwest  Level Estimated
Fri 06:02:00 PM 10.8181 -69.1415 326° Northwest  Level Estimated
Fri 06:03:00 PM 10.9165 -69.2082 326° Northwest  Level Estimated
Fri 06:04:00 PM 11.0149 -69.2749 326° Northwest  Level Estimated
Fri 06:05:00 PM 11.1133 -69.3417 326° Northwest  Level Estimated
Fri 06:06:00 PM 11.2116 -69.4085 326° Northwest  Level Estimated
Fri 06:07:00 PM 11.3100 -69.4754 326° Northwest  Level Estimated
Fri 06:08:00 PM 11.4083 -69.5423 326° Northwest  Level Estimated
Fri 06:09:00 PM 11.5066 -69.6093 326° Northwest  Level Estimated
Fri 06:10:00 PM 11.6049 -69.6763 326° Northwest  Level Estimated
Fri 06:11:00 PM 11.7032 -69.7434 326° Northwest  Level Estimated
Fri 06:12:00 PM 11.8015 -69.8105 326° Northwest  Level Estimated
Fri 06:13:00 PM 11.8997 -69.8776 326° Northwest  Level Estimated
Fri 06:14:00 PM 11.9980 -69.9448 326° Northwest  Level Estimated
Fri 06:15:00 PM 12.0962 -70.0121 326° Northwest  Level Estimated
Fri 06:16:00 PM 12.1944 -70.0794 326° Northwest  Level Estimated
Fri 06:17:00 PM 12.2926 -70.1467 326° Northwest  Level Estimated
Fri 06:18:00 PM 12.3908 -70.2141 326° Northwest  Level Estimated
Fri 06:19:00 PM 12.4889 -70.2816 326° Northwest  Level Estimated
Fri 06:20:00 PM 12.5871 -70.3491 326° Northwest  Level Estimated
Fri 06:21:00 PM 12.6852 -70.4166 326° Northwest  Level Estimated
Fri 06:22:00 PM 12.7833 -70.4842 326° Northwest  Level Estimated
Fri 06:23:00 PM 12.8814 -70.5519 326° Northwest  Level Estimated
Fri 06:24:00 PM 12.9795 -70.6196 326° Northwest  Level Estimated
Fri 06:25:00 PM 13.0775 -70.6874 326° Northwest  Level Estimated
Fri 06:26:00 PM 13.1756 -70.7552 326° Northwest  Level Estimated
Fri 06:27:00 PM 13.2736 -70.8231 326° Northwest  Level Estimated
Fri 06:28:00 PM 13.3716 -70.8910 326° Northwest  Level Estimated
Fri 06:29:00 PM 13.4696 -70.9590 326° Northwest  Level Estimated
Fri 06:30:00 PM 13.5675 -71.0270 326° Northwest  Level Estimated
Fri 06:31:00 PM 13.6655 -71.0951 326° Northwest  Level Estimated
Fri 06:32:00 PM 13.7634 -71.1633 326° Northwest  Level Estimated
Fri 06:33:00 PM 13.8613 -71.2315 326° Northwest  Level Estimated
Fri 06:34:00 PM 13.9592 -71.2998 326° Northwest  Level Estimated
Fri 06:35:00 PM 14.0571 -71.3681 326° Northwest  Level Estimated
Fri 06:36:00 PM 14.1549 -71.4364 326° Northwest  Level Estimated
Fri 06:37:00 PM 14.2528 -71.5049 326° Northwest  Level Estimated
Fri 06:38:00 PM 14.3506 -71.5734 326° Northwest  Level Estimated
Fri 06:39:00 PM 14.4484 -71.6420 326° Northwest  Level Estimated
Fri 06:40:00 PM 14.5461 -71.7106 326° Northwest  Level Estimated
Fri 06:41:00 PM 14.6439 -71.7793 326° Northwest  Level Estimated
Fri 06:42:00 PM 14.7416 -71.8480 326° Northwest  Level Estimated
Fri 06:43:00 PM 14.8393 -71.9168 326° Northwest  Level Estimated
Fri 06:44:00 PM 14.9370 -71.9857 326° Northwest  Level Estimated
Fri 06:45:00 PM 15.0347 -72.0546 326° Northwest  Level Estimated
Fri 06:46:00 PM 15.1323 -72.1236 326° Northwest  Level Estimated
Fri 06:47:00 PM 15.2300 -72.1926 326° Northwest  Level Estimated
Fri 06:48:00 PM 15.3276 -72.2618 326° Northwest  Level Estimated
Fri 06:49:00 PM 15.4252 -72.3310 326° Northwest  Level Estimated
Fri 06:50:00 PM 15.5227 -72.4002 326° Northwest  Level Estimated
Fri 06:51:00 PM 15.6203 -72.4695 326° Northwest  Level Estimated
Fri 06:52:00 PM 15.7178 -72.5389 326° Northwest  Level Estimated
Fri 06:53:00 PM 15.8153 -72.6084 326° Northwest  Level Estimated
Fri 06:54:00 PM 15.9128 -72.6779 326° Northwest  Level Estimated
Fri 06:55:00 PM 16.0102 -72.7475 326° Northwest  Level Estimated
Fri 06:56:00 PM 16.1077 -72.8171 326° Northwest  Level Estimated
Fri 06:57:00 PM 16.2051 -72.8868 326° Northwest  Level Estimated
Fri 06:58:00 PM 16.3025 -72.9566 325° Northwest  Level Estimated
Fri 06:59:00 PM 16.3998 -73.0265 325° Northwest  Level Estimated
Fri 07:00:00 PM 16.4972 -73.0964 325° Northwest  Level Estimated
Fri 07:01:00 PM 16.5945 -73.1664 325° Northwest  Level Estimated
Fri 07:02:00 PM 16.6918 -73.2365 325° Northwest  Level Estimated
Fri 07:03:00 PM 16.7891 -73.3066 325° Northwest  Level Estimated
Fri 07:04:00 PM 16.8863 -73.3768 325° Northwest  Level Estimated
Fri 07:05:00 PM 16.9835 -73.4471 325° Northwest  Level Estimated
Fri 07:06:00 PM 17.0807 -73.5175 325° Northwest  Level Estimated
Fri 07:07:00 PM 17.1779 -73.5879 325° Northwest  Level Estimated
Fri 07:08:00 PM 17.2751 -73.6584 325° Northwest  Level Estimated
Fri 07:09:00 PM 17.3722 -73.7290 325° Northwest  Level Estimated
Fri 07:10:00 PM 17.4693 -73.7996 325° Northwest  Level Estimated
Fri 07:11:00 PM 17.5664 -73.8704 325° Northwest  Level Estimated
Fri 07:12:00 PM 17.6634 -73.9412 325° Northwest  Level Estimated
Fri 07:13:00 PM 17.7605 -74.0121 325° Northwest  Level Estimated
Fri 07:14:00 PM 17.8575 -74.0830 325° Northwest  Level Estimated
Fri 07:15:00 PM 17.9545 -74.1541 325° Northwest  Level Estimated
Fri 07:16:00 PM 18.0514 -74.2252 325° Northwest  Level Estimated
Fri 07:17:00 PM 18.1483 -74.2964 325° Northwest  Level Estimated
Fri 07:18:00 PM 18.2452 -74.3676 325° Northwest  Level Estimated
Fri 07:19:00 PM 18.3421 -74.4390 325° Northwest  Level Estimated
Fri 07:20:00 PM 18.4389 -74.5104 325° Northwest  Level Estimated
Fri 07:21:00 PM 18.5358 -74.5819 325° Northwest  Level Estimated
Fri 07:22:00 PM 18.6325 -74.6535 325° Northwest  Level Estimated
Fri 07:23:00 PM 18.7293 -74.7252 325° Northwest  Level Estimated
Fri 07:24:00 PM 18.8260 -74.7969 325° Northwest  Level Estimated
Fri 07:25:00 PM 18.9228 -74.8688 325° Northwest  Level Estimated
Fri 07:26:00 PM 19.0194 -74.9407 325° Northwest  Level Estimated
Fri 07:27:00 PM 19.1161 -75.0127 325° Northwest  Level Estimated
Fri 07:28:00 PM 19.2127 -75.0848 325° Northwest  Level Estimated
Fri 07:29:00 PM 19.3093 -75.1570 325° Northwest  Level Estimated
Fri 07:30:00 PM 19.4059 -75.2292 325° Northwest  Level Estimated
Fri 07:31:00 PM 19.5024 -75.3016 325° Northwest  Level Estimated
Fri 07:32:00 PM 19.5989 -75.3740 325° Northwest  Level Estimated
Fri 07:33:00 PM 19.6954 -75.4465 325° Northwest  Level Estimated
Fri 07:34:00 PM 19.7919 -75.5191 325° Northwest  Level Estimated
Fri 07:35:00 PM 19.8883 -75.5919 325° Northwest  Level Estimated
Fri 07:36:00 PM 19.9847 -75.6646 325° Northwest  Level Estimated
Fri 07:37:00 PM 20.0811 -75.7375 325° Northwest  Level Estimated
Fri 07:38:00 PM 20.1774 -75.8105 325° Northwest  Level Estimated
Fri 07:39:00 PM 20.2737 -75.8835 325° Northwest  Level Estimated
Fri 07:40:00 PM 20.3700 -75.9566 325° Northwest  Level Estimated
Fri 07:41:00 PM 20.4662 -76.0299 325° Northwest  Level Estimated
Fri 07:42:00 PM 20.5624 -76.1032 324° Northwest  Level Estimated
Fri 07:43:00 PM 20.6586 -76.1766 324° Northwest  Level Estimated
Fri 07:44:00 PM 20.7548 -76.2501 324° Northwest  Level Estimated
Fri 07:45:00 PM 20.8509 -76.3238 324° Northwest  Level Estimated
Fri 07:46:00 PM 20.9470 -76.3975 324° Northwest  Level Estimated
Fri 07:47:00 PM 21.0430 -76.4712 324° Northwest  Level Estimated
Fri 07:48:00 PM 21.1391 -76.5451 324° Northwest  Level Estimated
Fri 07:49:00 PM 21.2351 -76.6191 324° Northwest  Level Estimated
Fri 07:50:00 PM 21.3310 -76.6932 324° Northwest  Level Estimated
Fri 07:51:00 PM 21.4269 -76.7674 324° Northwest  Level Estimated
Fri 07:52:00 PM 21.5228 -76.8417 324° Northwest  Level Estimated
Fri 07:53:00 PM 21.6187 -76.9160 324° Northwest  Level Estimated
Fri 07:54:00 PM 21.7145 -76.9905 324° Northwest  Level Estimated
Fri 07:55:00 PM 21.8103 -77.0651 324° Northwest  Level Estimated
Fri 07:56:00 PM 21.9061 -77.1397 324° Northwest  Level Estimated
Fri 07:57:00 PM 22.0018 -77.2145 324° Northwest  Level Estimated
Fri 07:58:00 PM 22.0975 -77.2894 324° Northwest  Level Estimated
Fri 07:59:00 PM 22.1932 -77.3644 324° Northwest  Level Estimated
Fri 08:00:00 PM 22.2888 -77.4394 324° Northwest  Level Estimated
Fri 08:01:00 PM 22.3844 -77.5146 324° Northwest  Level Estimated
Fri 08:02:00 PM 22.4800 -77.5899 324° Northwest  Level Estimated
Fri 08:03:00 PM 22.5755 -77.6653 324° Northwest  Level Estimated
Fri 08:04:00 PM 22.6710 -77.7408 324° Northwest  Level Estimated
Fri 08:05:00 PM 22.7664 -77.8164 324° Northwest  Level Estimated
Fri 08:06:00 PM 22.8618 -77.8921 324° Northwest  Level Estimated
Fri 08:07:00 PM 22.9572 -77.9679 324° Northwest  Level Estimated
Fri 08:08:00 PM 23.0526 -78.0438 324° Northwest  Level Estimated
Fri 08:09:00 PM 23.1505 -78.1219 324° Northwest  Level Estimated
Fri 08:10:00 PM 23.2484 -78.2002 324° Northwest  Level Estimated
Fri 08:11:00 PM 23.3463 -78.2786 324° Northwest  Level Estimated
Fri 08:12:00 PM 23.4442 -78.3570 324° Northwest  Level Estimated
Fri 08:13:00 PM 23.5420 -78.4357 324° Northwest  Level Estimated
Fri 08:14:00 PM 23.6397 -78.5144 324° Northwest  Level Estimated
Fri 08:15:00 PM 23.7374 -78.5932 324° Northwest  Level Estimated
Fri 08:16:00 PM 23.8351 -78.6722 324° Northwest  Level Estimated
Fri 08:17:00 PM 23.9328 -78.7512 323° Northwest  Level Estimated
Fri 08:18:00 PM 24.0304 -78.8304 323° Northwest  Level Estimated
Fri 08:19:00 PM 24.1279 -78.9097 323° Northwest  Level Estimated
Fri 08:20:00 PM 24.2254 -78.9892 323° Northwest  Level Estimated
Fri 08:21:00 PM 24.3229 -79.0687 323° Northwest  Level Estimated
Fri 08:22:00 PM 24.4204 -79.1484 323° Northwest  Level Estimated
Fri 08:23:00 PM 24.5177 -79.2282 323° Northwest  Level Estimated
Fri 08:24:00 PM 24.6151 -79.3081 323° Northwest  Level Estimated
Fri 08:25:00 PM 24.7124 -79.3882 323° Northwest  Level Estimated
Fri 08:26:00 PM 24.8097 -79.4683 323° Northwest  Level Estimated
Fri 08:27:00 PM 24.9069 -79.5486 323° Northwest  Level Estimated
Fri 08:28:00 PM 25.0090 -79.6191 346° North  Level FlightAware Approximate
Fri 08:29:00 PM 25.1225 -79.6500 346° North  Level FlightAware Approximate
Fri 08:30:00 PM 25.2336 -79.6855 277° West  Level FlightAware Approximate
Fri 08:31:00 PM 25.2478 -79.8137 277° West  Level FlightAware Approximate
Fri 08:32:00 PM 25.3276 -79.7655 38° Northeast  Level FlightAware Approximate
Fri 08:33:00 PM 25.4087 -79.7589 304° West  Level FlightAware Approximate
Fri 08:34:00 PM 25.4745 -79.8658 305° West  Level FlightAware Approximate
Fri 08:35:00 PM 25.5421 -79.9714 307° West  Level FlightAware Approximate
Fri 08:36:00 PM 25.6115 -80.0756 306° West  Level FlightAware Approximate
Fri 08:37:00 PM 25.6711 -80.1862 294° West  Level FlightAware Approximate
Fri 08:37:37 PM 25.7844 -80.3203 61° Northeast 130 150 200  Level Miami Center
Fri 08:38:00 PM 25.6991 -80.3113 281° West  Level FlightAware Approximate
Fri 08:39:00 PM 25.7954 -80.2901 266° West  Level Estimated
Fri 08:39:00 PM 25.7833 -80.2833 77° East  Level FlightAware Approximate
Fri 08:40:00 PM 25.7954 -80.2901 250° West  Level Estimated
Fri 08:41:00 PM 25.7954 -80.2901 90° East  Level Estimated
Fri 08:42:00 PM 25.7954 -80.2901 61° Northeast  Level Estimated
Fri 08:46:00 PM 25.7954 -80.2901 77° East  Level Estimated

Login

Don't have an account? Register now (free) for customized features, flight alerts, and more!